Aeroporto :
LOGIN :

Iscrizione | Disclaimer

   EN    FR    IT 

 










Sommario :    VFR   VFR Marginale   IFR   IFR Intensivo   IFR Molto Intensivo
Visibilità : 
Base nubi : 
>= 8 km
>= 3000ft
5 / 8 km
1000 / 3000 ft
1500m / 5 km
500 / 1000 ft
800 / 1500m
200 / 500 ft
< 800m
< 200 ft
Simboli :   Temporali  Nebbia  Neve Forte  Precipitazioni Forti  Vento > 20 kt
SIGMETs :   Varie  Temporali  Ghiacco  Turbolenza  Onda orograficha  Ceneri Vulcaniche






- Altitudine del aeroporto : 183 ft
- Codice IATA : HAJ


EDDV - Hanover/Langenhagen Int.

ULTIMO METAR :
  • 232250Z 11006KT 090V150 3000 BR FEW004 12/12 Q1011

METARs OBSOLETI :
  • 232220Z 12006KT 090V150 3000 BR FEW004 12/11 Q1011
  • 232150Z 11005KT 090V150 2700 BR FEW004 12/11 Q1011
  • 232120Z 10006KT 2700 BR FEW005 12/11 Q1011
  • 232050Z 08006KT 2700 BR FEW005 11/11 Q1012 BECMG BKN005
  • 232020Z 10004KT 4200 BR FEW005 13/12 Q1012 BECMG BKN005

TAF TAF EDDV
Valido dal 23 a 18 ore il 24 a 18 ore UTC


231700Z 2318/2418 10006KT 9999 SCT015
BECMG 2320/2323 3500 BR
TEMPO 2320/2323 2500 BKN006
BECMG 2323/2401 2000 BKN003
PROB30
TEMPO 2400/2408 0300 FG OVC000
BECMG 2408/2411 19006KT CAVOK



MetMap, La meteo Aeronautica in un colpo d'occhio ! - Copyright ORBIFLY Dicembre 2007 - Disclaimer

ORBIFLY MET'MAP TEAM :

Programmazione e sviluppo : Alexandra Zaïnal
Concezione e sviluppo : Baudouin d'Aumeries
Co-Programmazione e sviluppo : Marc-Olivier Méhu
Supporto tecnico e logistico : Manuel Goepfert
Aiuto per la traduzione : Arnaldo La Scala

Contatto : metmap@orbifly.com




FONTI E CREDITI :

   NOAA